Berlin, Wisconsin
Current Conditions -  °F | °C
As of 3:31 AM on Monday 24 Nov 2014 (Local Time) from KY50 Reporting Station
Haze Haze  
Wind Chill: 43°   Ceiling: 300
Heat Index: 43°   Visibility: 4mi
Dew Point: 43°   Wind: 0mph
Humidity: 100%   Direction: NA
Pressure: 29.06"   Gusts: NA
Location:  43.97°N, 88.95°W
Report Text: KY50 240931Z AUTO 00000KT 4SM BR BKN003 BKN030 OVC046 06/06 A2906 RMK AO2 TSNO CIG 001V007
Loading
Personal Weather Stations






























Interactive Weather Map New forecast layout! Learn more

10-Day Weather Forecast

Advertisements
Track Severe Weather on mobile